createdAt,value
2022-09-14T00:01:44.250Z,12.60
2022-09-14T00:04:15.011Z,12.60
2022-09-14T00:06:45.284Z,12.60
2022-09-14T00:09:17.303Z,12.60
2022-09-14T00:11:45.590Z,12.60
2022-09-14T00:14:13.920Z,12.60
2022-09-14T00:16:43.125Z,12.50
2022-09-14T00:19:18.037Z,12.50
2022-09-14T00:21:50.908Z,12.50
2022-09-14T00:24:19.433Z,12.50
2022-09-14T00:26:47.655Z,12.50
2022-09-14T00:29:15.969Z,12.50
2022-09-14T00:31:44.113Z,12.50
2022-09-14T00:34:15.707Z,12.50
2022-09-14T00:36:48.176Z,12.50
2022-09-14T00:39:18.061Z,12.50
2022-09-14T00:41:48.990Z,12.50
2022-09-14T00:44:55.233Z,12.50
2022-09-14T00:47:23.526Z,12.40
2022-09-14T00:49:52.156Z,12.40
2022-09-14T00:52:25.979Z,12.40
2022-09-14T00:54:57.414Z,12.30
2022-09-14T00:57:27.343Z,12.30
2022-09-14T00:59:56.629Z,12.30
2022-09-14T01:02:26.969Z,12.20
2022-09-14T01:04:55.765Z,12.20
2022-09-14T01:07:38.556Z,12.20
2022-09-14T01:10:19.480Z,12.20
2022-09-14T01:12:57.295Z,12.20
2022-09-14T01:15:32.718Z,12.20
2022-09-14T01:18:08.481Z,12.20
2022-09-14T01:20:41.208Z,12.20
2022-09-14T01:23:19.045Z,12.20
2022-09-14T01:26:05.087Z,12.20
2022-09-14T01:28:42.399Z,12.10
2022-09-14T01:31:14.346Z,12.20
2022-09-14T01:33:49.285Z,12.10
2022-09-14T01:36:18.691Z,12.10
2022-09-14T01:38:50.296Z,12.10
2022-09-14T01:41:23.242Z,12.10
2022-09-14T01:43:56.529Z,12.10
2022-09-14T01:46:29.804Z,12.10
2022-09-14T01:49:04.243Z,12.10
2022-09-14T01:51:33.185Z,12.10
2022-09-14T01:54:06.761Z,12.10
2022-09-14T01:56:39.644Z,12.00
2022-09-14T01:59:15.533Z,12.00
2022-09-14T02:01:50.582Z,12.00
2022-09-14T02:04:27.280Z,12.00
2022-09-14T02:06:56.484Z,12.00
2022-09-14T02:09:27.012Z,12.00
2022-09-14T02:12:00.517Z,12.00
2022-09-14T02:14:30.511Z,12.00
2022-09-14T02:16:58.801Z,12.00
2022-09-14T02:19:30.172Z,12.00
2022-09-14T02:21:58.421Z,12.00
2022-09-14T02:24:27.487Z,12.10
2022-09-14T02:26:57.977Z,12.00
2022-09-14T02:29:26.088Z,12.00
2022-09-14T02:32:12.631Z,12.00
2022-09-14T02:34:51.076Z,12.00
2022-09-14T02:37:22.455Z,12.00
2022-09-14T02:39:59.781Z,12.00
2022-09-14T02:42:37.241Z,12.00
2022-09-14T02:45:16.195Z,11.90
2022-09-14T02:47:55.466Z,11.90
2022-09-14T02:50:29.689Z,11.90
2022-09-14T02:53:00.892Z,11.90
2022-09-14T02:55:35.460Z,11.90
2022-09-14T02:58:06.062Z,12.00
2022-09-14T03:00:37.420Z,11.90
2022-09-14T03:03:08.856Z,11.90
2022-09-14T03:05:37.277Z,12.00
2022-09-14T03:08:06.201Z,12.00
2022-09-14T03:10:34.867Z,12.00
2022-09-14T03:13:03.217Z,12.00
2022-09-14T03:15:31.705Z,12.10
2022-09-14T03:18:00.049Z,12.10
2022-09-14T03:20:32.682Z,12.10
2022-09-14T03:23:01.933Z,12.10
2022-09-14T03:25:30.556Z,12.10
2022-09-14T03:28:00.840Z,12.00
2022-09-14T03:30:29.161Z,12.00
2022-09-14T03:32:58.831Z,12.00
2022-09-14T03:35:31.385Z,12.00
2022-09-14T03:38:00.975Z,11.90
2022-09-14T03:40:29.181Z,11.90
2022-09-14T03:42:57.357Z,11.80
2022-09-14T03:45:25.495Z,11.80
2022-09-14T03:47:53.733Z,11.80
2022-09-14T03:50:21.695Z,11.80
2022-09-14T03:52:51.124Z,11.90
2022-09-14T03:55:19.590Z,11.90
2022-09-14T03:57:47.732Z,12.00
2022-09-14T04:00:16.104Z,12.00
2022-09-14T04:02:45.571Z,12.00
2022-09-14T04:05:13.702Z,12.00
2022-09-14T04:07:41.901Z,12.00
2022-09-14T04:10:11.490Z,12.00
2022-09-14T04:12:40.281Z,12.00
2022-09-14T04:15:09.167Z,12.00
2022-09-14T04:17:37.259Z,11.90
2022-09-14T04:20:06.422Z,11.90
2022-09-14T04:22:35.394Z,12.00
2022-09-14T04:25:03.705Z,11.90
2022-09-14T04:27:33.117Z,12.00
2022-09-14T04:30:01.272Z,11.90
2022-09-14T04:32:34.046Z,11.90
2022-09-14T04:35:02.815Z,11.90
2022-09-14T04:37:32.282Z,11.90
2022-09-14T04:40:00.617Z,11.80
2022-09-14T04:42:28.650Z,11.80
2022-09-14T04:44:59.274Z,11.70
2022-09-14T04:47:27.238Z,11.70
2022-09-14T04:49:55.384Z,11.70
2022-09-14T04:52:24.604Z,11.70
2022-09-14T04:54:52.767Z,11.70
2022-09-14T04:57:20.736Z,11.70
2022-09-14T04:59:49.000Z,11.70
2022-09-14T05:02:18.422Z,11.70
2022-09-14T05:04:46.658Z,11.70
2022-09-14T05:07:14.696Z,11.70
2022-09-14T05:09:43.101Z,11.70
2022-09-14T05:12:11.082Z,11.70
2022-09-14T05:14:39.349Z,11.80
2022-09-14T05:17:07.292Z,11.80
2022-09-14T05:19:36.866Z,11.90
2022-09-14T05:22:04.998Z,12.00
2022-09-14T05:24:33.186Z,12.20
2022-09-14T05:27:02.411Z,12.30
2022-09-14T05:29:31.849Z,12.40
2022-09-14T05:32:00.371Z,12.50
2022-09-14T05:34:28.368Z,12.60
2022-09-14T05:36:57.823Z,12.70
2022-09-14T05:39:25.953Z,12.80
2022-09-14T05:41:54.170Z,12.90
2022-09-14T05:44:22.215Z,13.00
2022-09-14T05:46:50.607Z,13.10
2022-09-14T05:49:18.735Z,13.30
2022-09-14T05:51:46.771Z,13.30
2022-09-14T05:54:16.067Z,13.50
2022-09-14T05:56:44.266Z,13.50
2022-09-14T05:59:12.264Z,13.60
2022-09-14T06:01:40.708Z,13.70
2022-09-14T06:04:10.449Z,13.80
2022-09-14T06:06:38.747Z,13.90
2022-09-14T06:09:06.712Z,14.00
2022-09-14T06:11:37.537Z,14.10
2022-09-14T06:14:06.399Z,14.20
2022-09-14T06:16:34.933Z,14.30
2022-09-14T06:19:03.155Z,14.40
2022-09-14T06:21:33.946Z,14.50
2022-09-14T06:24:02.520Z,14.50
2022-09-14T06:26:32.597Z,14.60
2022-09-14T06:29:01.923Z,14.70
2022-09-14T06:31:30.527Z,14.80
2022-09-14T06:33:58.941Z,14.90
2022-09-14T06:36:30.291Z,15.00
2022-09-14T06:39:00.962Z,15.20
2022-09-14T06:41:30.724Z,15.30
2022-09-14T06:44:02.081Z,15.40
2022-09-14T06:46:32.232Z,15.60
2022-09-14T06:49:02.422Z,15.90
2022-09-14T06:51:33.381Z,16.00
2022-09-14T06:54:02.176Z,16.20
2022-09-14T06:56:33.374Z,16.40
2022-09-14T06:59:03.296Z,16.60
2022-09-14T07:01:31.353Z,16.80
2022-09-14T07:04:01.548Z,17.00
2022-09-14T07:06:32.175Z,17.10
2022-09-14T07:09:00.704Z,17.30
2022-09-14T07:11:29.603Z,17.30
2022-09-14T07:13:58.981Z,17.50
2022-09-14T07:16:29.998Z,17.60
2022-09-14T07:18:59.737Z,17.70
2022-09-14T07:21:28.808Z,17.80
2022-09-14T07:23:57.084Z,18.00
2022-09-14T07:26:26.739Z,18.20
2022-09-14T07:28:57.117Z,18.30
2022-09-14T07:31:27.221Z,18.50
2022-09-14T07:33:58.699Z,18.80
2022-09-14T07:36:30.468Z,19.20
2022-09-14T07:39:02.900Z,19.50
2022-09-14T07:41:32.979Z,19.70
2022-09-14T07:44:02.781Z,19.80
2022-09-14T07:46:33.263Z,20.10
2022-09-14T07:49:03.724Z,20.60
2022-09-14T07:51:32.569Z,21.30
2022-09-14T07:54:00.943Z,21.90
2022-09-14T07:56:29.553Z,22.60
2022-09-14T07:59:17.123Z,23.20
2022-09-14T08:01:49.156Z,23.80
2022-09-14T08:04:18.708Z,24.30
2022-09-14T08:06:46.676Z,24.40
2022-09-14T08:09:15.138Z,24.20
2022-09-14T08:11:43.102Z,24.10
2022-09-14T08:14:14.221Z,24.10
2022-09-14T08:16:42.773Z,24.30
2022-09-14T08:19:15.441Z,24.50
2022-09-14T08:21:47.069Z,24.50
2022-09-14T08:24:18.677Z,24.50
2022-09-14T08:26:47.295Z,24.40
2022-09-14T08:29:16.823Z,24.30
2022-09-14T08:31:45.925Z,24.30
2022-09-14T08:34:15.827Z,24.70
2022-09-14T08:36:46.660Z,25.30
2022-09-14T08:39:16.378Z,26.00
2022-09-14T08:41:52.724Z,27.00
2022-09-14T08:44:25.939Z,27.80
2022-09-14T08:46:59.798Z,28.20
2022-09-14T08:49:40.708Z,28.20
2022-09-14T08:52:19.863Z,27.90
2022-09-14T08:54:53.696Z,27.30
2022-09-14T08:57:28.408Z,26.70
2022-09-14T09:00:04.513Z,26.20
2022-09-14T09:03:01.337Z,25.70
2022-09-14T09:05:39.228Z,25.30
2022-09-14T09:08:18.668Z,25.20
2022-09-14T09:10:48.888Z,25.20
2022-09-14T09:13:22.712Z,25.40
2022-09-14T09:15:52.705Z,25.60
2022-09-14T09:18:28.116Z,25.70
2022-09-14T09:21:02.002Z,25.80
2022-09-14T09:23:33.183Z,26.10
2022-09-14T09:26:05.729Z,26.40
2022-09-14T09:28:34.731Z,26.60
2022-09-14T09:31:10.208Z,27.00
2022-09-14T09:33:59.324Z,28.80
2022-09-14T09:36:29.385Z,30.60
2022-09-14T09:39:04.372Z,31.60
2022-09-14T09:41:45.960Z,34.00
2022-09-14T09:44:14.108Z,36.30
2022-09-14T09:46:49.092Z,38.40
2022-09-14T09:49:23.429Z,40.80
2022-09-14T09:51:53.302Z,42.50
2022-09-14T09:54:31.570Z,43.80
2022-09-14T09:57:02.005Z,45.10
2022-09-14T09:59:36.369Z,45.10
2022-09-14T10:02:27.451Z,44.00
2022-09-14T10:05:01.399Z,42.50
2022-09-14T10:07:31.257Z,40.90
2022-09-14T10:10:07.469Z,39.50
2022-09-14T10:12:37.141Z,38.10
2022-09-14T10:15:17.190Z,36.80
2022-09-14T10:18:09.540Z,35.50
2022-09-14T10:20:39.469Z,34.10
2022-09-14T10:23:26.027Z,33.00
2022-09-14T10:26:19.235Z,31.90
2022-09-14T10:28:50.172Z,31.20
2022-09-14T10:31:26.519Z,30.60
2022-09-14T10:33:56.980Z,30.20
2022-09-14T10:36:27.748Z,30.00
2022-09-14T10:38:59.344Z,29.70
2022-09-14T10:41:32.153Z,29.40
2022-09-14T10:44:39.569Z,29.20
2022-09-14T10:47:23.000Z,28.90
2022-09-14T10:50:03.634Z,28.60
2022-09-14T10:52:40.394Z,28.40
2022-09-14T10:55:34.245Z,28.60
2022-09-14T10:58:24.620Z,29.70
2022-09-14T11:01:03.071Z,30.80
2022-09-14T11:03:51.829Z,32.00
2022-09-14T11:06:34.908Z,33.20
2022-09-14T11:09:06.664Z,34.30
2022-09-14T11:11:44.927Z,34.90
2022-09-14T11:14:24.350Z,35.40
2022-09-14T11:17:07.357Z,36.00
2022-09-14T11:19:43.667Z,37.00
2022-09-14T11:22:19.604Z,37.80
2022-09-14T11:24:54.548Z,38.40
2022-09-14T11:27:28.027Z,39.10
2022-09-14T11:30:00.780Z,39.60
2022-09-14T11:32:34.530Z,40.10
2022-09-14T11:35:11.909Z,39.70
2022-09-14T11:37:43.619Z,38.80
2022-09-14T11:40:20.993Z,38.10
2022-09-14T11:42:57.035Z,37.30
2022-09-14T11:45:30.330Z,36.80
2022-09-14T11:48:40.874Z,36.80
2022-09-14T11:51:19.380Z,37.20
2022-09-14T11:53:51.863Z,37.80
2022-09-14T11:56:27.006Z,37.60
2022-09-14T11:58:57.845Z,36.70
2022-09-14T12:01:29.938Z,35.80
2022-09-14T12:04:11.935Z,34.70
2022-09-14T12:07:01.175Z,33.70
2022-09-14T12:09:52.917Z,32.60
2022-09-14T12:12:39.161Z,31.70
2022-09-14T12:15:35.726Z,30.80
2022-09-14T12:18:22.645Z,30.40
2022-09-14T12:21:02.611Z,30.40
2022-09-14T12:23:42.934Z,30.40
2022-09-14T12:26:33.176Z,30.60
2022-09-14T12:29:21.156Z,30.50
2022-09-14T12:32:26.034Z,30.40
2022-09-14T12:35:31.930Z,30.10
2022-09-14T12:38:01.486Z,29.70
2022-09-14T12:40:39.339Z,29.20
2022-09-14T12:43:47.369Z,28.80
2022-09-14T12:46:48.939Z,28.50
2022-09-14T12:49:30.561Z,29.00
2022-09-14T12:52:05.377Z,29.70
2022-09-14T12:54:51.448Z,30.20
2022-09-14T12:57:29.990Z,31.00
2022-09-14T13:00:06.385Z,31.80
2022-09-14T13:03:08.582Z,32.20
2022-09-14T13:05:36.816Z,32.50
2022-09-14T13:08:11.832Z,32.40
2022-09-14T13:10:47.229Z,31.90
2022-09-14T13:13:26.213Z,31.10
2022-09-14T13:15:57.363Z,30.60
2022-09-14T13:18:31.895Z,30.30
2022-09-14T13:21:01.672Z,30.50
2022-09-14T13:23:33.723Z,30.80
2022-09-14T13:26:11.550Z,30.90
2022-09-14T13:28:43.164Z,30.70
2022-09-14T13:31:14.049Z,30.40
2022-09-14T13:33:48.760Z,29.90
2022-09-14T13:36:19.699Z,29.30
2022-09-14T13:38:48.930Z,28.70
2022-09-14T13:41:21.117Z,28.40
2022-09-14T13:43:51.121Z,27.90
2022-09-14T13:46:20.615Z,27.40
2022-09-14T13:48:50.084Z,26.90
2022-09-14T13:51:25.993Z,26.40
2022-09-14T13:53:55.814Z,25.90
2022-09-14T13:56:29.160Z,25.50
2022-09-14T13:59:21.539Z,25.20
2022-09-14T14:01:56.630Z,24.80
2022-09-14T14:04:36.989Z,24.50
2022-09-14T14:07:19.763Z,24.30
2022-09-14T14:09:50.993Z,24.10
2022-09-14T14:12:26.123Z,23.90
2022-09-14T14:14:58.776Z,23.80
2022-09-14T14:17:38.890Z,23.80
2022-09-14T14:20:31.915Z,23.80
2022-09-14T14:23:04.020Z,23.70
2022-09-14T14:25:35.074Z,23.80
2022-09-14T14:28:06.478Z,23.90
2022-09-14T14:30:40.370Z,24.00
2022-09-14T14:33:13.271Z,24.10
2022-09-14T14:35:41.661Z,24.20
2022-09-14T14:38:10.691Z,24.20
2022-09-14T14:40:40.057Z,24.20
2022-09-14T14:43:11.545Z,24.10
2022-09-14T14:45:40.730Z,23.90
2022-09-14T14:48:12.297Z,23.80
2022-09-14T14:50:40.818Z,23.70
2022-09-14T14:53:08.936Z,23.50
2022-09-14T14:55:37.573Z,23.40
2022-09-14T14:58:12.407Z,23.40
2022-09-14T15:00:40.486Z,23.40
2022-09-14T15:03:08.821Z,23.30
2022-09-14T15:05:40.376Z,23.20
2022-09-14T15:08:10.758Z,23.10
2022-09-14T15:10:39.921Z,23.00
2022-09-14T15:13:11.363Z,22.90
2022-09-14T15:15:41.918Z,22.90
2022-09-14T15:18:10.224Z,22.90
2022-09-14T15:20:38.389Z,22.90
2022-09-14T15:23:06.940Z,22.90
2022-09-14T15:25:35.030Z,22.70
2022-09-14T15:28:03.550Z,22.60
2022-09-14T15:30:32.902Z,22.40
2022-09-14T15:33:01.077Z,22.30
2022-09-14T15:35:29.414Z,22.20
2022-09-14T15:37:57.705Z,22.10
2022-09-14T15:40:25.821Z,22.10
2022-09-14T15:42:53.906Z,22.10
2022-09-14T15:45:21.910Z,22.10
2022-09-14T15:47:51.421Z,22.00
2022-09-14T15:50:19.651Z,21.90
2022-09-14T15:52:47.855Z,21.80
2022-09-14T15:55:16.224Z,21.70
2022-09-14T15:57:44.767Z,21.50
2022-09-14T16:00:14.183Z,21.40
2022-09-14T16:02:43.466Z,21.30
2022-09-14T16:05:13.512Z,21.30
2022-09-14T16:07:41.562Z,21.20
2022-09-14T16:10:10.662Z,21.10
2022-09-14T16:12:38.637Z,21.00
2022-09-14T16:15:08.000Z,20.80
2022-09-14T16:17:35.945Z,20.60
2022-09-14T16:20:06.396Z,20.30
2022-09-14T16:22:35.699Z,20.10
2022-09-14T16:25:04.123Z,19.90
2022-09-14T16:27:32.291Z,19.70
2022-09-14T16:30:00.477Z,19.50
2022-09-14T16:32:28.547Z,19.30
2022-09-14T16:34:57.025Z,19.10
2022-09-14T16:37:25.036Z,18.90
2022-09-14T16:39:54.683Z,18.80
2022-09-14T16:42:22.709Z,18.60
2022-09-14T16:44:50.805Z,18.50
2022-09-14T16:47:18.790Z,18.30
2022-09-14T16:49:47.080Z,18.20
2022-09-14T16:52:15.135Z,18.10
2022-09-14T16:54:43.638Z,18.00
2022-09-14T16:57:12.976Z,17.80
2022-09-14T16:59:41.173Z,17.80
2022-09-14T17:02:11.460Z,17.70
2022-09-14T17:04:39.540Z,17.60
2022-09-14T17:07:07.818Z,17.60
2022-09-14T17:09:35.839Z,17.60
2022-09-14T17:12:04.612Z,17.50
2022-09-14T17:14:35.198Z,17.40
2022-09-14T17:17:03.183Z,17.40
2022-09-14T17:19:31.290Z,17.40
2022-09-14T17:21:59.418Z,17.40
2022-09-14T17:24:27.570Z,17.40
2022-09-14T17:26:55.592Z,17.40
2022-09-14T17:29:23.668Z,17.40
2022-09-14T17:31:55.527Z,17.30
2022-09-14T17:34:23.748Z,17.30
2022-09-14T17:36:51.894Z,17.30
2022-09-14T17:39:19.839Z,17.20
2022-09-14T17:41:47.900Z,17.10
2022-09-14T17:44:16.109Z,17.00
2022-09-14T17:46:52.100Z,16.90
2022-09-14T17:49:22.939Z,16.80
2022-09-14T17:51:51.050Z,16.70
2022-09-14T17:54:19.802Z,16.60
2022-09-14T17:56:47.999Z,16.40
2022-09-14T17:59:17.814Z,16.30
2022-09-14T18:01:46.084Z,16.20
2022-09-14T18:04:15.677Z,16.00
2022-09-14T18:06:47.102Z,15.90
2022-09-14T18:09:17.219Z,15.70
2022-09-14T18:11:45.328Z,15.60
2022-09-14T18:14:14.538Z,15.40
2022-09-14T18:16:44.147Z,15.40
2022-09-14T18:19:12.715Z,15.30
2022-09-14T18:21:41.358Z,15.20
2022-09-14T18:24:12.182Z,15.10
2022-09-14T18:26:40.242Z,15.00
2022-09-14T18:29:08.293Z,14.90
2022-09-14T18:31:36.547Z,14.80
2022-09-14T18:34:04.814Z,14.80
2022-09-14T18:36:32.891Z,14.80
2022-09-14T18:39:00.869Z,14.80
2022-09-14T18:41:34.002Z,14.80
2022-09-14T18:44:03.208Z,14.80
2022-09-14T18:46:31.863Z,14.80
2022-09-14T18:49:01.619Z,14.80
2022-09-14T18:51:31.519Z,14.80
2022-09-14T18:54:01.123Z,14.80
2022-09-14T18:56:33.193Z,14.80
2022-09-14T18:59:02.739Z,14.80
2022-09-14T19:01:31.062Z,14.80
2022-09-14T19:03:59.272Z,14.80
2022-09-14T19:06:27.251Z,14.80
2022-09-14T19:08:55.561Z,14.70
2022-09-14T19:11:26.866Z,14.70
2022-09-14T19:13:58.708Z,14.70
2022-09-14T19:16:26.952Z,14.70
2022-09-14T19:18:55.381Z,14.70
2022-09-14T19:21:24.881Z,14.70
2022-09-14T19:24:00.186Z,14.80
2022-09-14T19:26:30.109Z,14.80
2022-09-14T19:29:03.810Z,14.80
2022-09-14T19:31:33.583Z,14.80
2022-09-14T19:34:03.207Z,14.80
2022-09-14T19:36:33.692Z,14.80
2022-09-14T19:39:02.893Z,14.70
2022-09-14T19:41:35.279Z,14.70
2022-09-14T19:44:06.658Z,14.60
2022-09-14T19:46:36.272Z,14.50
2022-09-14T19:49:04.568Z,14.40
2022-09-14T19:51:32.977Z,14.30
2022-09-14T19:54:04.641Z,14.30
2022-09-14T19:56:33.594Z,14.20
2022-09-14T19:59:04.910Z,14.10
2022-09-14T20:01:40.411Z,14.00
2022-09-14T20:04:10.256Z,13.90
2022-09-14T20:06:45.986Z,13.90
2022-09-14T20:09:15.839Z,13.80
2022-09-14T20:11:46.018Z,13.70
2022-09-14T20:14:18.567Z,13.60
2022-09-14T20:16:48.422Z,13.50
2022-09-14T20:19:18.250Z,13.50
2022-09-14T20:21:47.729Z,13.40
2022-09-14T20:24:19.251Z,13.30
2022-09-14T20:26:48.356Z,13.30
2022-09-14T20:29:19.206Z,13.20
2022-09-14T20:31:48.208Z,13.10
2022-09-14T20:34:18.273Z,13.10
2022-09-14T20:36:47.098Z,13.00
2022-09-14T20:39:15.134Z,13.00
2022-09-14T20:41:43.338Z,12.90
2022-09-14T20:44:12.036Z,12.80
2022-09-14T20:46:42.987Z,12.80
2022-09-14T20:49:12.703Z,12.80
2022-09-14T20:51:41.665Z,12.70
2022-09-14T20:54:12.763Z,12.70
2022-09-14T20:56:41.634Z,12.60
2022-09-14T20:59:12.508Z,12.60
2022-09-14T21:01:43.835Z,12.60
2022-09-14T21:04:13.950Z,12.50
2022-09-14T21:06:43.981Z,12.50
2022-09-14T21:09:13.223Z,12.40
2022-09-14T21:11:41.995Z,12.40
2022-09-14T21:14:10.195Z,12.40
2022-09-14T21:16:42.983Z,12.30
2022-09-14T21:19:16.094Z,12.30
2022-09-14T21:21:44.946Z,12.20
2022-09-14T21:24:13.994Z,12.20
2022-09-14T21:26:43.337Z,12.20
2022-09-14T21:29:15.187Z,12.10
2022-09-14T21:31:43.990Z,12.10
2022-09-14T21:34:13.995Z,12.00
2022-09-14T21:36:44.038Z,12.00
2022-09-14T21:39:13.769Z,12.00
2022-09-14T21:41:44.232Z,12.00
2022-09-14T21:44:12.344Z,11.90
2022-09-14T21:46:40.775Z,11.90
2022-09-14T21:49:12.387Z,11.90
2022-09-14T21:51:42.197Z,11.80
2022-09-14T21:54:12.087Z,11.80
2022-09-14T21:56:42.809Z,11.80
2022-09-14T21:59:12.885Z,11.80
2022-09-14T22:01:41.871Z,11.80
2022-09-14T22:04:13.248Z,11.70
2022-09-14T22:06:43.010Z,11.70
2022-09-14T22:09:11.086Z,11.70
2022-09-14T22:11:39.779Z,11.60
2022-09-14T22:14:13.054Z,11.60
2022-09-14T22:16:41.934Z,11.60
2022-09-14T22:19:14.543Z,11.60
2022-09-14T22:21:44.243Z,11.60
2022-09-14T22:24:17.486Z,11.50
2022-09-14T22:26:46.407Z,11.50
2022-09-14T22:29:15.440Z,11.50
2022-09-14T22:31:45.185Z,11.50
2022-09-14T22:34:14.136Z,11.50
2022-09-14T22:36:44.302Z,11.50
2022-09-14T22:39:12.933Z,11.50
2022-09-14T22:41:41.793Z,11.40
2022-09-14T22:44:09.852Z,11.40
2022-09-14T22:46:38.041Z,11.40
2022-09-14T22:49:06.145Z,11.40
2022-09-14T22:51:34.196Z,11.40
2022-09-14T22:54:03.543Z,11.50
2022-09-14T22:56:33.508Z,11.50
2022-09-14T22:59:03.036Z,11.50
2022-09-14T23:01:32.690Z,11.50
2022-09-14T23:04:02.729Z,11.50
2022-09-14T23:06:33.819Z,11.50
2022-09-14T23:09:04.438Z,11.50
2022-09-14T23:11:32.927Z,11.60
2022-09-14T23:14:01.079Z,11.60
2022-09-14T23:16:30.751Z,11.60
2022-09-14T23:19:00.449Z,11.60
2022-09-14T23:21:30.135Z,11.60
2022-09-14T23:24:00.829Z,11.60
2022-09-14T23:26:31.135Z,11.60
2022-09-14T23:29:01.990Z,11.60
2022-09-14T23:31:32.134Z,11.60
2022-09-14T23:34:02.177Z,11.60
2022-09-14T23:36:30.985Z,11.60
2022-09-14T23:38:59.512Z,11.60
2022-09-14T23:41:28.831Z,11.60
2022-09-14T23:43:58.429Z,11.60
2022-09-14T23:46:26.889Z,11.50
2022-09-14T23:48:54.994Z,11.50
2022-09-14T23:51:22.993Z,11.50
2022-09-14T23:53:51.200Z,11.50
2022-09-14T23:56:19.131Z,11.40
2022-09-14T23:58:47.322Z,11.40
